createdAt,value
2023-04-09T00:00:22.904Z,101892.16
2023-04-09T00:02:49.399Z,101902.66
2023-04-09T00:05:16.087Z,101893.38
2023-04-09T00:07:44.354Z,101901.53
2023-04-09T00:10:11.534Z,101895.47
2023-04-09T00:12:38.019Z,101891.91
2023-04-09T00:15:04.397Z,101895.53
2023-04-09T00:17:33.612Z,101895.34
2023-04-09T00:20:00.743Z,101886.91
2023-04-09T00:22:27.325Z,101895.41
2023-04-09T00:24:53.750Z,101899.06
2023-04-09T00:27:20.348Z,101893.22
2023-04-09T00:29:47.492Z,101895.94
2023-04-09T00:32:13.859Z,101899.38
2023-04-09T00:34:40.358Z,101891.97
2023-04-09T00:37:06.798Z,101895.88
2023-04-09T00:39:33.130Z,101892.28
2023-04-09T00:41:59.697Z,101890.63
2023-04-09T00:44:26.126Z,101898.44
2023-04-09T00:46:52.735Z,101897.03
2023-04-09T00:49:19.207Z,101894.75
2023-04-09T00:51:46.000Z,101896.59
2023-04-09T00:54:12.484Z,101897.97
2023-04-09T00:56:38.851Z,101893.72
2023-04-09T00:59:05.423Z,101899.25
2023-04-09T01:01:31.886Z,101892.81
2023-04-09T01:03:58.325Z,101904.13
2023-04-09T01:06:24.938Z,101894.31
2023-04-09T01:08:51.759Z,101899.88
2023-04-09T01:11:18.557Z,101904.53
2023-04-09T01:13:45.244Z,101900.81
2023-04-09T01:16:11.696Z,101898.16
2023-04-09T01:18:40.626Z,101894.31
2023-04-09T01:21:08.127Z,101898.50
2023-04-09T01:23:34.503Z,101892.91
2023-04-09T01:26:01.184Z,101892.09
2023-04-09T01:28:31.782Z,101898.69
2023-04-09T01:30:58.324Z,101897.91
2023-04-09T01:33:24.709Z,101897.31
2023-04-09T01:35:51.097Z,101893.94
2023-04-09T01:38:17.533Z,101888.53
2023-04-09T01:40:43.920Z,101891.00
2023-04-09T01:43:10.301Z,101888.13
2023-04-09T01:45:36.731Z,101882.84
2023-04-09T01:48:03.117Z,101891.63
2023-04-09T01:50:29.464Z,101887.34
2023-04-09T01:52:56.121Z,101886.34
2023-04-09T01:55:22.483Z,101883.50
2023-04-09T01:57:48.922Z,101887.94
2023-04-09T02:00:15.560Z,101877.28
2023-04-09T02:02:45.454Z,101883.81
2023-04-09T02:05:11.880Z,101872.72
2023-04-09T02:07:38.276Z,101882.06
2023-04-09T02:10:04.634Z,101879.72
2023-04-09T02:12:30.993Z,101879.34
2023-04-09T02:14:58.135Z,101876.97
2023-04-09T02:17:24.543Z,101877.09
2023-04-09T02:19:51.797Z,101874.91
2023-04-09T02:22:18.356Z,101871.94
2023-04-09T02:24:44.773Z,101877.16
2023-04-09T02:27:11.205Z,101867.75
2023-04-09T02:29:37.871Z,101869.19
2023-04-09T02:32:04.313Z,101871.50
2023-04-09T02:34:30.844Z,101867.69
2023-04-09T02:36:57.300Z,101863.56
2023-04-09T02:39:23.753Z,101862.78
2023-04-09T02:41:50.206Z,101865.00
2023-04-09T02:44:16.577Z,101866.53
2023-04-09T02:46:43.154Z,101863.06
2023-04-09T02:49:09.687Z,101854.81
2023-04-09T02:51:36.086Z,101855.44
2023-04-09T02:54:02.557Z,101854.44
2023-04-09T02:56:28.949Z,101850.88
2023-04-09T02:58:55.542Z,101853.19
2023-04-09T03:01:21.988Z,101841.16
2023-04-09T03:03:48.579Z,101841.75
2023-04-09T03:06:15.007Z,101846.00
2023-04-09T03:08:41.373Z,101842.09
2023-04-09T03:11:07.720Z,101843.97
2023-04-09T03:13:34.091Z,101840.84
2023-04-09T03:16:00.521Z,101833.66
2023-04-09T03:18:26.996Z,101840.19
2023-04-09T03:20:53.374Z,101837.91
2023-04-09T03:23:19.999Z,101835.81
2023-04-09T03:25:47.559Z,101834.78
2023-04-09T03:28:16.476Z,101836.69
2023-04-09T03:30:52.406Z,101831.84
2023-04-09T03:33:19.722Z,101832.06
2023-04-09T03:35:57.344Z,101827.75
2023-04-09T03:38:43.650Z,101827.72
2023-04-09T03:41:22.262Z,101829.66
2023-04-09T03:43:49.088Z,101829.31
2023-04-09T03:46:20.456Z,101831.06
2023-04-09T03:48:48.158Z,101829.84
2023-04-09T03:51:14.939Z,101832.91
2023-04-09T03:53:47.251Z,101826.22
2023-04-09T03:56:13.691Z,101826.25
2023-04-09T03:58:40.465Z,101829.25
2023-04-09T04:01:08.597Z,101827.75
2023-04-09T04:03:40.338Z,101837.72
2023-04-09T04:06:12.400Z,101838.16
2023-04-09T04:08:46.916Z,101843.13
2023-04-09T04:11:14.044Z,101840.28
2023-04-09T04:13:40.881Z,101837.59
2023-04-09T04:16:09.214Z,101839.19
2023-04-09T04:18:37.175Z,101841.53
2023-04-09T04:21:03.807Z,101837.47
2023-04-09T04:23:32.044Z,101836.13
2023-04-09T04:26:12.579Z,101836.03
2023-04-09T04:28:40.328Z,101838.41
2023-04-09T04:31:10.843Z,101838.13
2023-04-09T04:33:38.022Z,101843.94
2023-04-09T04:36:09.421Z,101838.78
2023-04-09T04:38:41.204Z,101841.78
2023-04-09T04:41:14.433Z,101839.00
2023-04-09T04:43:45.938Z,101837.06
2023-04-09T04:46:20.452Z,101837.19
2023-04-09T04:48:47.557Z,101843.50
2023-04-09T04:51:14.159Z,101846.97
2023-04-09T04:53:46.579Z,101852.84
2023-04-09T04:56:14.618Z,101848.88
2023-04-09T04:58:53.526Z,101843.94
2023-04-09T05:01:20.931Z,101849.72
2023-04-09T05:03:47.873Z,101851.09
2023-04-09T05:06:27.957Z,101849.00
2023-04-09T05:08:57.988Z,101846.66
2023-04-09T05:11:27.121Z,101841.72
2023-04-09T05:13:53.683Z,101845.84
2023-04-09T05:16:22.186Z,101851.41
2023-04-09T05:18:54.980Z,101856.16
2023-04-09T05:21:21.665Z,101855.25
2023-04-09T05:23:48.790Z,101847.50
2023-04-09T05:26:15.831Z,101850.13
2023-04-09T05:28:55.885Z,101854.97
2023-04-09T05:31:23.453Z,101854.25
2023-04-09T05:33:57.666Z,101853.69
2023-04-09T05:36:33.355Z,101856.22
2023-04-09T05:39:00.712Z,101852.91
2023-04-09T05:41:27.137Z,101849.75
2023-04-09T05:44:17.499Z,101851.28
2023-04-09T05:46:44.194Z,101852.75
2023-04-09T05:49:12.847Z,101845.47
2023-04-09T05:51:43.136Z,101845.63
2023-04-09T05:54:10.635Z,101845.84
2023-04-09T05:56:37.963Z,101845.69
2023-04-09T05:59:05.001Z,101849.81
2023-04-09T06:01:31.408Z,101845.06
2023-04-09T06:03:58.500Z,101847.72
2023-04-09T06:06:28.235Z,101844.75
2023-04-09T06:08:54.658Z,101849.78
2023-04-09T06:11:22.901Z,101844.94
2023-04-09T06:13:49.568Z,101842.94
2023-04-09T06:16:16.267Z,101845.84
2023-04-09T06:18:42.724Z,101835.66
2023-04-09T06:21:09.312Z,101841.78
2023-04-09T06:23:35.742Z,101853.53
2023-04-09T06:26:02.161Z,101849.47
2023-04-09T06:28:28.497Z,101853.47
2023-04-09T06:30:55.391Z,101848.09
2023-04-09T06:33:21.899Z,101855.72
2023-04-09T06:35:48.670Z,101853.44
2023-04-09T06:38:15.577Z,101854.09
2023-04-09T06:40:42.099Z,101852.59
2023-04-09T06:43:08.468Z,101859.69
2023-04-09T06:45:52.065Z,101862.63
2023-04-09T06:48:18.586Z,101856.66
2023-04-09T06:50:44.987Z,101864.28
2023-04-09T06:53:11.396Z,101865.16
2023-04-09T06:55:37.791Z,101868.84
2023-04-09T06:58:04.394Z,101865.00
2023-04-09T07:00:30.733Z,101871.66
2023-04-09T07:02:57.411Z,101870.56
2023-04-09T07:05:24.550Z,101869.41
2023-04-09T07:07:51.151Z,101869.25
2023-04-09T07:10:17.559Z,101867.31
2023-04-09T07:12:43.993Z,101865.84
2023-04-09T07:15:10.505Z,101874.75
2023-04-09T07:17:37.003Z,101875.94
2023-04-09T07:20:03.998Z,101872.50
2023-04-09T07:22:30.787Z,101872.97
2023-04-09T07:24:57.282Z,101876.06
2023-04-09T07:27:23.751Z,101873.41
2023-04-09T07:29:50.258Z,101871.38
2023-04-09T07:32:16.653Z,101870.38
2023-04-09T07:34:43.057Z,101868.47
2023-04-09T07:37:09.691Z,101868.34
2023-04-09T07:39:36.333Z,101872.09
2023-04-09T07:42:02.788Z,101874.50
2023-04-09T07:44:29.231Z,101870.06
2023-04-09T07:46:55.675Z,101875.59
2023-04-09T07:49:22.106Z,101867.00
2023-04-09T07:51:48.486Z,101871.81
2023-04-09T07:54:14.850Z,101864.38
2023-04-09T07:56:41.644Z,101876.53
2023-04-09T07:59:08.038Z,101867.94
2023-04-09T08:01:34.434Z,101872.97
2023-04-09T08:04:01.076Z,101876.06
2023-04-09T08:06:27.695Z,101874.06
2023-04-09T08:08:54.357Z,101863.97
2023-04-09T08:11:25.198Z,101869.19
2023-04-09T08:13:51.921Z,101872.91
2023-04-09T08:16:18.302Z,101866.09
2023-04-09T08:18:44.636Z,101863.84
2023-04-09T08:21:10.997Z,101872.22
2023-04-09T08:23:37.732Z,101869.28
2023-04-09T08:26:04.112Z,101863.56
2023-04-09T08:28:30.526Z,101862.84
2023-04-09T08:30:56.887Z,101858.41
2023-04-09T08:33:23.255Z,101865.13
2023-04-09T08:35:49.704Z,101870.44
2023-04-09T08:38:16.408Z,101862.75
2023-04-09T08:40:42.796Z,101861.50
2023-04-09T08:43:09.223Z,101868.75
2023-04-09T08:45:35.614Z,101872.50
2023-04-09T08:48:03.657Z,101869.94
2023-04-09T08:50:30.869Z,101866.81
2023-04-09T08:52:57.225Z,101872.31
2023-04-09T08:55:23.731Z,101871.75
2023-04-09T08:57:50.223Z,101878.34
2023-04-09T09:00:17.059Z,101874.16
2023-04-09T09:02:43.507Z,101863.22
2023-04-09T09:05:10.057Z,101864.28
2023-04-09T09:07:36.512Z,101865.88
2023-04-09T09:10:06.029Z,101869.50
2023-04-09T09:12:32.477Z,101864.09
2023-04-09T09:14:58.859Z,101863.13
2023-04-09T09:17:25.511Z,101858.25
2023-04-09T09:19:52.004Z,101862.06
2023-04-09T09:22:18.398Z,101852.34
2023-04-09T09:24:44.788Z,101860.69
2023-04-09T09:27:11.142Z,101846.19
2023-04-09T09:29:37.470Z,101852.91
2023-04-09T09:32:03.833Z,101853.91
2023-04-09T09:34:30.221Z,101846.03
2023-04-09T09:36:56.648Z,101842.09
2023-04-09T09:39:23.040Z,101847.47
2023-04-09T09:41:49.401Z,101843.53
2023-04-09T09:44:15.802Z,101840.97
2023-04-09T09:46:45.010Z,101843.44
2023-04-09T09:49:11.392Z,101844.59
2023-04-09T09:51:37.790Z,101844.44
2023-04-09T09:54:04.183Z,101841.47
2023-04-09T09:56:32.506Z,101839.69
2023-04-09T09:58:58.945Z,101842.78
2023-04-09T10:01:25.480Z,101835.84
2023-04-09T10:03:52.493Z,101834.91
2023-04-09T10:06:18.853Z,101824.84
2023-04-09T10:08:45.433Z,101828.03
2023-04-09T10:11:12.752Z,101818.88
2023-04-09T10:13:39.076Z,101827.94
2023-04-09T10:16:07.171Z,101816.53
2023-04-09T10:18:34.627Z,101819.97
2023-04-09T10:21:01.061Z,101809.56
2023-04-09T10:23:28.067Z,101814.00
2023-04-09T10:25:54.479Z,101817.41
2023-04-09T10:28:20.893Z,101815.13
2023-04-09T10:30:47.317Z,101817.31
2023-04-09T10:33:13.763Z,101816.78
2023-04-09T10:35:40.263Z,101813.53
2023-04-09T10:38:06.785Z,101809.59
2023-04-09T10:40:33.106Z,101802.53
2023-04-09T10:42:59.538Z,101796.94
2023-04-09T10:45:28.583Z,101797.38
2023-04-09T10:47:55.142Z,101803.59
2023-04-09T10:50:21.538Z,101791.09
2023-04-09T10:52:47.960Z,101799.19
2023-04-09T10:55:14.327Z,101797.59
2023-04-09T10:57:40.762Z,101789.91
2023-04-09T11:00:07.152Z,101792.63
2023-04-09T11:02:33.690Z,101794.75
2023-04-09T11:05:00.645Z,101790.56
2023-04-09T11:07:27.673Z,101798.16
2023-04-09T11:09:54.047Z,101784.19
2023-04-09T11:12:20.519Z,101780.53
2023-04-09T11:14:46.883Z,101784.75
2023-04-09T11:17:13.265Z,101775.78
2023-04-09T11:19:39.642Z,101779.16
2023-04-09T11:22:09.031Z,101785.28
2023-04-09T11:24:35.385Z,101773.94
2023-04-09T11:27:02.108Z,101769.56
2023-04-09T11:29:28.449Z,101760.97
2023-04-09T11:31:54.889Z,101764.34
2023-04-09T11:34:21.308Z,101762.72
2023-04-09T11:36:47.674Z,101753.56
2023-04-09T11:39:14.511Z,101755.47
2023-04-09T11:41:40.915Z,101754.81
2023-04-09T11:44:07.255Z,101747.63
2023-04-09T11:46:33.715Z,101756.41
2023-04-09T11:49:00.417Z,101759.75
2023-04-09T11:51:27.347Z,101749.22
2023-04-09T11:53:53.716Z,101744.00
2023-04-09T11:56:20.557Z,101743.19
2023-04-09T11:58:50.175Z,101749.22
2023-04-09T12:01:16.937Z,101739.78
2023-04-09T12:03:43.549Z,101734.34
2023-04-09T12:06:09.986Z,101743.38
2023-04-09T12:08:37.120Z,101733.56
2023-04-09T12:11:03.469Z,101736.16
2023-04-09T12:13:29.828Z,101742.84
2023-04-09T12:15:57.509Z,101740.09
2023-04-09T12:18:25.461Z,101737.69
2023-04-09T12:20:51.833Z,101740.22
2023-04-09T12:23:18.205Z,101728.13
2023-04-09T12:25:44.619Z,101731.66
2023-04-09T12:28:11.041Z,101729.44
2023-04-09T12:30:37.484Z,101731.88
2023-04-09T12:33:03.985Z,101735.34
2023-04-09T12:35:30.601Z,101739.88
2023-04-09T12:37:57.057Z,101729.97
2023-04-09T12:40:23.412Z,101730.00
2023-04-09T12:42:49.866Z,101731.75
2023-04-09T12:45:16.259Z,101724.47
2023-04-09T12:47:42.673Z,101736.25
2023-04-09T12:50:09.135Z,101734.47
2023-04-09T12:52:35.761Z,101733.63
2023-04-09T12:55:02.181Z,101737.03
2023-04-09T12:57:28.537Z,101734.38
2023-04-09T12:59:54.969Z,101728.03
2023-04-09T13:02:24.616Z,101733.09
2023-04-09T13:04:51.293Z,101734.19
2023-04-09T13:07:19.108Z,101722.81
2023-04-09T13:09:45.620Z,101724.94
2023-04-09T13:12:12.618Z,101714.66
2023-04-09T13:14:38.969Z,101718.34
2023-04-09T13:17:05.502Z,101725.63
2023-04-09T13:19:32.293Z,101727.31
2023-04-09T13:21:58.622Z,101725.00
2023-04-09T13:24:25.006Z,101721.72
2023-04-09T13:26:51.401Z,101726.22
2023-04-09T13:29:18.078Z,101717.47
2023-04-09T13:31:45.015Z,101707.72
2023-04-09T13:34:11.673Z,101721.25
2023-04-09T13:36:38.298Z,101709.63
2023-04-09T13:39:04.680Z,101704.78
2023-04-09T13:41:31.916Z,101704.81
2023-04-09T13:43:58.389Z,101705.47
2023-04-09T13:46:24.798Z,101704.56
2023-04-09T13:48:51.430Z,101708.06
2023-04-09T13:51:18.183Z,101708.34
2023-04-09T13:53:45.807Z,101710.41
2023-04-09T13:56:12.407Z,101701.44
2023-04-09T13:58:38.857Z,101703.31
2023-04-09T14:01:07.843Z,101698.00
2023-04-09T14:03:34.684Z,101695.31
2023-04-09T14:06:01.854Z,101685.59
2023-04-09T14:08:28.333Z,101685.81
2023-04-09T14:10:56.785Z,101681.56
2023-04-09T14:13:23.254Z,101684.28
2023-04-09T14:15:50.089Z,101680.69
2023-04-09T14:18:16.453Z,101673.72
2023-04-09T14:20:43.024Z,101672.94
2023-04-09T14:23:10.894Z,101670.28
2023-04-09T14:25:38.127Z,101667.69
2023-04-09T14:28:04.547Z,101658.56
2023-04-09T14:30:31.215Z,101669.28
2023-04-09T14:32:57.877Z,101657.59
2023-04-09T14:35:24.468Z,101660.25
2023-04-09T14:37:50.880Z,101653.88
2023-04-09T14:40:17.295Z,101658.53
2023-04-09T14:42:43.677Z,101664.69
2023-04-09T14:45:10.319Z,101660.88
2023-04-09T14:47:36.734Z,101671.53
2023-04-09T14:50:03.104Z,101668.28
2023-04-09T14:52:30.497Z,101652.06
2023-04-09T14:54:57.605Z,101649.44
2023-04-09T14:57:24.077Z,101651.31
2023-04-09T14:59:50.466Z,101648.81
2023-04-09T15:02:17.350Z,101645.31
2023-04-09T15:04:43.856Z,101644.22
2023-04-09T15:07:10.574Z,101654.25
2023-04-09T15:09:36.956Z,101645.38
2023-04-09T15:12:03.426Z,101643.63
2023-04-09T15:14:30.662Z,101640.78
2023-04-09T15:16:57.077Z,101630.84
2023-04-09T15:19:23.428Z,101644.34
2023-04-09T15:21:49.785Z,101634.47
2023-04-09T15:24:16.203Z,101625.56
2023-04-09T15:26:42.549Z,101640.69
2023-04-09T15:29:08.926Z,101640.03
2023-04-09T15:31:35.490Z,101643.63
2023-04-09T15:34:01.903Z,101646.31
2023-04-09T15:36:29.958Z,101633.88
2023-04-09T15:38:56.328Z,101636.59
2023-04-09T15:41:23.932Z,101642.88
2023-04-09T15:43:50.613Z,101640.97
2023-04-09T15:46:18.122Z,101644.53
2023-04-09T15:48:44.652Z,101640.88
2023-04-09T15:51:11.034Z,101642.75
2023-04-09T15:53:37.376Z,101641.75
2023-04-09T15:56:03.924Z,101642.75
2023-04-09T15:58:30.344Z,101644.25
2023-04-09T16:00:56.796Z,101649.78
2023-04-09T16:03:23.136Z,101646.28
2023-04-09T16:05:49.539Z,101647.13
2023-04-09T16:08:15.952Z,101642.78
2023-04-09T16:10:42.330Z,101631.13
2023-04-09T16:13:08.699Z,101631.28
2023-04-09T16:15:35.187Z,101629.47
2023-04-09T16:18:01.624Z,101636.63
2023-04-09T16:20:29.346Z,101626.78
2023-04-09T16:22:55.803Z,101621.44
2023-04-09T16:25:22.203Z,101613.44
2023-04-09T16:27:48.579Z,101605.41
2023-04-09T16:30:14.977Z,101607.16
2023-04-09T16:32:41.466Z,101591.09
2023-04-09T16:35:07.995Z,101604.47
2023-04-09T16:37:35.269Z,101596.44
2023-04-09T16:40:02.017Z,101597.25
2023-04-09T16:42:30.226Z,101591.75
2023-04-09T16:44:57.119Z,101600.75
2023-04-09T16:47:23.541Z,101596.28
2023-04-09T16:49:50.049Z,101591.84
2023-04-09T16:52:19.447Z,101590.94
2023-04-09T16:54:45.811Z,101590.94
2023-04-09T16:57:12.213Z,101591.97
2023-04-09T16:59:40.626Z,101585.75
2023-04-09T17:02:07.298Z,101594.63
2023-04-09T17:04:34.475Z,101591.09
2023-04-09T17:07:00.948Z,101590.22
2023-04-09T17:09:27.304Z,101595.56
2023-04-09T17:11:53.668Z,101591.03
2023-04-09T17:14:20.053Z,101594.69
2023-04-09T17:16:46.707Z,101591.03
2023-04-09T17:19:13.866Z,101584.88
2023-04-09T17:21:40.250Z,101590.22
2023-04-09T17:24:06.638Z,101605.34
2023-04-09T17:26:33.095Z,101600.00
2023-04-09T17:28:59.474Z,101594.66
2023-04-09T17:31:26.753Z,101591.91
2023-04-09T17:33:53.214Z,101587.41
2023-04-09T17:36:19.704Z,101591.91
2023-04-09T17:38:46.437Z,101592.75
2023-04-09T17:41:16.407Z,101593.53
2023-04-09T17:43:42.901Z,101590.84
2023-04-09T17:46:09.671Z,101596.31
2023-04-09T17:48:36.411Z,101597.06
2023-04-09T17:51:02.944Z,101602.53
2023-04-09T17:53:29.345Z,101604.88
2023-04-09T17:55:55.702Z,101601.47
2023-04-09T17:58:22.495Z,101596.97
2023-04-09T18:00:48.861Z,101600.28
2023-04-09T18:03:15.551Z,101602.72
2023-04-09T18:05:42.850Z,101611.88
2023-04-09T18:08:09.255Z,101604.97
2023-04-09T18:10:35.660Z,101610.06
2023-04-09T18:13:02.070Z,101607.38
2023-04-09T18:15:28.504Z,101604.28
2023-04-09T18:17:54.862Z,101605.94
2023-04-09T18:20:21.263Z,101598.88
2023-04-09T18:22:47.654Z,101604.34
2023-04-09T18:25:14.048Z,101614.88
2023-04-09T18:27:40.533Z,101618.16
2023-04-09T18:30:07.022Z,101614.88
2023-04-09T18:32:33.568Z,101611.25
2023-04-09T18:34:59.940Z,101607.47
2023-04-09T18:37:26.791Z,101605.63
2023-04-09T18:39:53.119Z,101596.94
2023-04-09T18:42:19.536Z,101600.88
2023-04-09T18:44:46.020Z,101606.28
2023-04-09T18:47:12.401Z,101609.09
2023-04-09T18:49:38.816Z,101608.75
2023-04-09T18:52:10.129Z,101606.16
2023-04-09T18:54:37.471Z,101613.94
2023-04-09T18:57:07.012Z,101608.72
2023-04-09T18:59:34.756Z,101616.59
2023-04-09T19:02:02.066Z,101613.78
2023-04-09T19:04:30.313Z,101623.72
2023-04-09T19:06:56.718Z,101614.72
2023-04-09T19:09:23.387Z,101616.31
2023-04-09T19:11:49.736Z,101611.00
2023-04-09T19:14:16.070Z,101614.41
2023-04-09T19:16:44.269Z,101618.75
2023-04-09T19:19:11.295Z,101612.69
2023-04-09T19:21:37.624Z,101617.00
2023-04-09T19:24:05.982Z,101624.81
2023-04-09T19:26:33.164Z,101622.47
2023-04-09T19:28:59.533Z,101624.03
2023-04-09T19:31:26.118Z,101623.84
2023-04-09T19:33:52.494Z,101621.22
2023-04-09T19:36:18.894Z,101627.09
2023-04-09T19:38:45.306Z,101626.97
2023-04-09T19:41:11.671Z,101626.06
2023-04-09T19:43:39.311Z,101619.75
2023-04-09T19:46:06.646Z,101618.97
2023-04-09T19:48:32.984Z,101623.16
2023-04-09T19:50:59.309Z,101622.47
2023-04-09T19:53:25.703Z,101626.13
2023-04-09T19:55:52.050Z,101620.75
2023-04-09T19:58:18.469Z,101620.69
2023-04-09T20:00:44.879Z,101627.97
2023-04-09T20:03:11.592Z,101623.41
2023-04-09T20:05:38.449Z,101616.41
2023-04-09T20:08:04.829Z,101620.19
2023-04-09T20:10:31.516Z,101622.06
2023-04-09T20:12:57.970Z,101629.28
2023-04-09T20:15:24.368Z,101617.06
2023-04-09T20:17:51.230Z,101617.09
2023-04-09T20:20:20.951Z,101620.50
2023-04-09T20:22:55.717Z,101621.81
2023-04-09T20:25:22.714Z,101620.94
2023-04-09T20:27:49.122Z,101611.69
2023-04-09T20:30:15.540Z,101615.59
2023-04-09T20:32:42.094Z,101613.59
2023-04-09T20:35:09.344Z,101616.38
2023-04-09T20:37:35.692Z,101603.72
2023-04-09T20:40:02.273Z,101604.50
2023-04-09T20:42:28.616Z,101605.25
2023-04-09T20:44:55.467Z,101600.66
2023-04-09T20:47:22.140Z,101599.50
2023-04-09T20:49:49.071Z,101600.03
2023-04-09T20:52:15.458Z,101600.56
2023-04-09T20:54:43.019Z,101596.31
2023-04-09T20:57:11.008Z,101586.84
2023-04-09T20:59:38.463Z,101590.25
2023-04-09T21:02:05.110Z,101589.50
2023-04-09T21:04:31.568Z,101587.22
2023-04-09T21:06:57.980Z,101590.75
2023-04-09T21:09:25.089Z,101591.97
2023-04-09T21:11:51.459Z,101589.06
2023-04-09T21:14:17.815Z,101587.59
2023-04-09T21:16:44.249Z,101590.50
2023-04-09T21:19:11.046Z,101589.47
2023-04-09T21:21:37.401Z,101586.44
2023-04-09T21:24:04.010Z,101589.94
2023-04-09T21:26:44.916Z,101588.13
2023-04-09T21:29:16.178Z,101596.00
2023-04-09T21:31:42.641Z,101590.41
2023-04-09T21:34:09.028Z,101585.84
2023-04-09T21:36:39.079Z,101592.13
2023-04-09T21:39:05.433Z,101595.34
2023-04-09T21:41:32.251Z,101574.47
2023-04-09T21:43:58.682Z,101577.22
2023-04-09T21:46:25.124Z,101575.94
2023-04-09T21:48:52.130Z,101568.38
2023-04-09T21:51:18.782Z,101566.25
2023-04-09T21:53:45.154Z,101558.41
2023-04-09T21:56:11.516Z,101561.56
2023-04-09T21:58:37.938Z,101556.63
2023-04-09T22:01:05.183Z,101565.81
2023-04-09T22:03:32.673Z,101566.66
2023-04-09T22:05:59.140Z,101569.94
2023-04-09T22:08:25.531Z,101574.78
2023-04-09T22:10:52.168Z,101574.09
2023-04-09T22:13:18.527Z,101591.06
2023-04-09T22:15:44.930Z,101589.78
2023-04-09T22:18:11.348Z,101590.66
2023-04-09T22:20:37.749Z,101588.63
2023-04-09T22:23:04.228Z,101595.28
2023-04-09T22:25:34.873Z,101600.75
2023-04-09T22:28:01.317Z,101601.75
2023-04-09T22:30:27.670Z,101598.00
2023-04-09T22:32:54.120Z,101600.38
2023-04-09T22:35:20.576Z,101605.84
2023-04-09T22:37:47.299Z,101609.25
2023-04-09T22:40:14.794Z,101608.19
2023-04-09T22:42:41.831Z,101607.59
2023-04-09T22:45:08.194Z,101608.84
2023-04-09T22:47:34.904Z,101614.72
2023-04-09T22:50:01.640Z,101601.00
2023-04-09T22:52:28.074Z,101602.25
2023-04-09T22:54:54.415Z,101604.41
2023-04-09T22:57:20.773Z,101609.53
2023-04-09T22:59:47.197Z,101609.66
2023-04-09T23:02:13.803Z,101604.84
2023-04-09T23:04:40.804Z,101614.94
2023-04-09T23:07:07.992Z,101608.47
2023-04-09T23:09:34.407Z,101607.59
2023-04-09T23:12:01.208Z,101607.84
2023-04-09T23:14:27.670Z,101607.59
2023-04-09T23:16:54.172Z,101606.38
2023-04-09T23:19:20.716Z,101604.41
2023-04-09T23:21:47.140Z,101602.91
2023-04-09T23:24:13.786Z,101603.66
2023-04-09T23:26:40.805Z,101600.78
2023-04-09T23:29:07.290Z,101597.84
2023-04-09T23:31:33.760Z,101592.59
2023-04-09T23:34:00.330Z,101596.66
2023-04-09T23:36:26.918Z,101598.53
2023-04-09T23:38:53.256Z,101595.75
2023-04-09T23:41:19.663Z,101594.31
2023-04-09T23:43:46.084Z,101593.13
2023-04-09T23:46:12.690Z,101587.91
2023-04-09T23:48:39.110Z,101586.44
2023-04-09T23:51:05.637Z,101582.19
2023-04-09T23:53:32.049Z,101577.03
2023-04-09T23:55:58.622Z,101572.59
2023-04-09T23:58:25.373Z,101568.97
